Time;durP1;ratioP1;P1;durP2;ratioP2;P2;SDS_P1;SDS_P2;PMS_P1;PMS_P2;Temp;Humidity;BMP_temperature;BMP_pressure;BME280_temperature;BME280_humidity;BME280_pressure;Samples;Min_cycle;Max_cycle;Signal;HPM_P1;HPM_P2
2022/06/30 00:00:48;;;;;;;;;;;;;;;26.10;60.60;99266.69;4455365;32;20013;-83
2022/06/30 00:03:14;;;;;;;;;;;;;;;26.07;60.60;99265.16;4455687;32;27025;-83
2022/06/30 00:05:40;;;;;;;;;;;;;;;26.11;60.60;99263.84;4457748;32;20343;-83
2022/06/30 00:08:05;;;;;;;;;;;;;;;26.03;60.60;99266.47;4471725;32;19988;-84
2022/06/30 00:10:30;;;;;;;;;;;;;;;25.97;60.59;99262.59;4457800;32;19981;-83
2022/06/30 00:12:56;;;;;;;;;;;;;;;25.82;60.58;99260.69;4444684;32;20012;-83
2022/06/30 00:15:21;;;;;;;;;;;;;;;25.77;60.60;99271.81;4471974;32;19992;-83
2022/06/30 00:17:46;;;;;;;;;;;;;;;25.67;60.58;99271.09;4457633;32;20336;-84
2022/06/30 00:20:12;;;;;;;;;;;;;;;25.53;60.58;99275.13;4471517;32;23625;-84
2022/06/30 00:22:37;;;;;;;;;;;;;;;25.75;60.58;99276.47;4444210;32;24828;-83
2022/06/30 00:25:02;;;;;;;;;;;;;;;25.67;60.58;99273.75;4457367;32;19989;-83
2022/06/30 00:27:27;;;;;;;;;;;;;;;25.62;60.58;99273.38;4444198;32;20250;-84
2022/06/30 00:29:53;;;;;;;;;;;;;;;25.64;60.58;99279.38;4456541;32;32944;-84
2022/06/30 00:32:18;;;;;;;;;;;;;;;25.49;60.58;99279.09;4456882;32;20137;-83
2022/06/30 00:34:43;;;;;;;;;;;;;;;25.40;60.57;99280.88;4471589;32;19987;-84
2022/06/30 00:37:09;;;;;;;;;;;;;;;25.44;60.56;99283.22;4457132;32;19981;-84
2022/06/30 00:39:34;;;;;;;;;;;;;;;25.33;60.56;99277.16;4456830;32;20008;-84
2022/06/30 00:41:59;;;;;;;;;;;;;;;25.34;60.56;99278.84;4456603;32;20026;-84
2022/06/30 00:44:24;;;;;;;;;;;;;;;25.24;60.56;99282.56;4457161;32;19988;-84
2022/06/30 00:46:50;;;;;;;;;;;;;;;25.31;60.56;99273.78;4457100;32;19996;-83
2022/06/30 00:49:16;;;;;;;;;;;;;;;25.19;60.56;99272.38;4457126;32;19961;-83
2022/06/30 00:51:41;;;;;;;;;;;;;;;25.20;60.55;99276.72;4457216;32;20042;-83
2022/06/30 00:54:06;;;;;;;;;;;;;;;25.32;60.56;99269.34;4456676;32;22993;-83
2022/06/30 00:56:32;;;;;;;;;;;;;;;25.19;60.55;99279.53;4471312;32;20023;-83
2022/06/30 00:58:58;;;;;;;;;;;;;;;25.09;60.55;99271.63;4457068;32;20350;-83
2022/06/30 01:01:23;;;;;;;;;;;;;;;24.70;60.53;99265.72;4457039;32;19988;-83
2022/06/30 01:03:48;;;;;;;;;;;;;;;24.89;60.54;99270.09;4444244;32;20007;-83
2022/06/30 01:06:14;;;;;;;;;;;;;;;24.91;60.55;99271.59;4471097;32;25466;-84
2022/06/30 01:08:39;;;;;;;;;;;;;;;24.86;60.54;99268.56;4470832;32;21935;-83
2022/06/30 01:13:48;;;;;;;;;;;;;;;24.89;60.54;99267.41;4471472;32;20012;-84
2022/06/30 01:16:13;;;;;;;;;;;;;;;24.94;60.54;99265.12;4456349;32;19985;-84
2022/06/30 01:18:39;;;;;;;;;;;;;;;24.52;60.53;99260.38;4457397;32;20007;-83
2022/06/30 01:21:04;;;;;;;;;;;;;;;24.44;60.52;99260.28;4457426;32;19985;-82
2022/06/30 01:23:29;;;;;;;;;;;;;;;24.41;60.50;99263.25;4472300;32;20328;-84
2022/06/30 01:25:54;;;;;;;;;;;;;;;24.31;60.51;99265.12;4477564;32;20022;-83
2022/06/30 01:28:20;;;;;;;;;;;;;;;24.47;60.51;99260.84;4464033;32;21287;-83
2022/06/30 01:30:45;;;;;;;;;;;;;;;24.44;60.52;99271.78;4477016;32;19991;-83
2022/06/30 01:33:10;;;;;;;;;;;;;;;24.40;60.51;99269.56;4471334;32;20284;-83
2022/06/30 01:35:35;;;;;;;;;;;;;;;24.44;60.52;99268.28;4456759;32;20004;-83
2022/06/30 01:38:01;;;;;;;;;;;;;;;24.35;60.50;99269.16;4470727;32;20796;-84
2022/06/30 01:40:27;;;;;;;;;;;;;;;24.46;60.52;99274.28;4456609;32;20063;-83
2022/06/30 01:42:52;;;;;;;;;;;;;;;24.47;60.52;99267.97;4457063;32;20008;-83
2022/06/30 01:45:18;;;;;;;;;;;;;;;24.16;60.50;99278.91;4443897;32;19985;-83
2022/06/30 01:47:43;;;;;;;;;;;;;;;24.05;60.50;99289.69;4456685;32;20302;-83
2022/06/30 01:50:10;;;;;;;;;;;;;;;24.10;60.50;99275.97;4456642;32;19997;-83
2022/06/30 01:52:35;;;;;;;;;;;;;;;23.96;60.49;99289.75;4456706;32;19996;-84
2022/06/30 01:55:00;;;;;;;;;;;;;;;23.78;60.48;99290.50;4470932;32;19980;-83
2022/06/30 01:57:25;;;;;;;;;;;;;;;23.94;60.49;99292.56;4443272;32;25408;-84
2022/06/30 01:59:51;;;;;;;;;;;;;;;23.92;60.49;99294.53;4456250;32;23787;-83
2022/06/30 02:02:16;;;;;;;;;;;;;;;23.86;60.48;99287.09;4470210;32;26721;-83
2022/06/30 02:04:47;;;;;;;;;;;;;;;23.94;60.49;99294.38;4455925;32;28362;-84
2022/06/30 02:07:13;;;;;;;;;;;;;;;23.78;60.48;99297.63;4457268;32;19973;-83
2022/06/30 02:09:38;;;;;;;;;;;;;;;23.58;60.47;99300.31;4456388;32;19993;-83
2022/06/30 02:14:47;;;;;;;;;;;;;;;23.61;60.47;99301.00;4470774;32;20022;-83
2022/06/30 02:17:12;;;;;;;;;;;;;;;23.33;60.45;99294.72;4455957;32;23646;-83
2022/06/30 02:19:38;;;;;;;;;;;;;;;23.47;60.46;99296.97;4456314;32;20008;-83
2022/06/30 02:22:03;;;;;;;;;;;;;;;23.48;60.46;99296.81;4455965;32;22847;-84
2022/06/30 02:24:28;;;;;;;;;;;;;;;23.36;60.46;99287.31;4470752;32;19992;-83
2022/06/30 02:26:53;;;;;;;;;;;;;;;23.25;60.45;99296.28;4456193;32;20242;-84
2022/06/30 02:29:19;;;;;;;;;;;;;;;23.44;60.47;99292.78;4470489;32;20014;-83
2022/06/30 02:31:44;;;;;;;;;;;;;;;23.61;60.48;99295.69;4456473;32;20261;-83
2022/06/30 02:34:10;;;;;;;;;;;;;;;23.47;60.47;99297.81;4456395;32;19976;-83
2022/06/30 02:36:35;;;;;;;;;;;;;;;23.37;60.46;99296.97;4443156;32;19969;-83
2022/06/30 02:39:00;;;;;;;;;;;;;;;23.45;60.46;99310.38;4456103;32;20044;-83
2022/06/30 02:41:25;;;;;;;;;;;;;;;23.54;60.47;99303.38;4469897;32;21718;-84
2022/06/30 02:43:51;;;;;;;;;;;;;;;23.49;60.46;99289.69;4455848;32;21709;-83
2022/06/30 02:46:17;;;;;;;;;;;;;;;23.44;60.47;99292.78;4456328;32;19999;-82
2022/06/30 02:48:42;;;;;;;;;;;;;;;23.45;60.46;99297.13;4455504;32;31349;-83
2022/06/30 02:51:07;;;;;;;;;;;;;;;23.36;60.46;99291.78;4470078;32;19969;-83
2022/06/30 02:53:32;;;;;;;;;;;;;;;23.39;60.46;99297.66;4456311;32;19989;-83
2022/06/30 02:55:57;;;;;;;;;;;;;;;23.44;60.47;99298.09;4443014;32;19961;-83
2022/06/30 02:58:23;;;;;;;;;;;;;;;23.48;60.46;99291.50;4455512;32;25052;-83
2022/06/30 03:00:48;;;;;;;;;;;;;;;23.47;60.47;99289.84;4455995;32;20029;-84
2022/06/30 03:03:13;;;;;;;;;;;;;;;23.30;60.46;99295.03;4456229;32;20226;-83
2022/06/30 03:05:38;;;;;;;;;;;;;;;23.21;60.45;99286.94;4469410;32;33282;-83
2022/06/30 03:08:04;;;;;;;;;;;;;;;23.26;60.46;99297.97;4469833;32;19996;-83
2022/06/30 03:10:29;;;;;;;;;;;;;;;23.25;60.45;99306.06;4470088;32;19980;-83
2022/06/30 03:12:54;;;;;;;;;;;;;;;23.35;60.46;99303.41;4455033;32;27625;-83
2022/06/30 03:15:19;;;;;;;;;;;;;;;23.21;60.45;99307.34;4455692;32;19965;-83
2022/06/30 03:17:45;;;;;;;;;;;;;;;23.20;60.45;99309.16;4455205;32;22365;-83
2022/06/30 03:20:10;;;;;;;;;;;;;;;23.34;60.46;99307.87;4455151;32;23213;-85
2022/06/30 03:22:35;;;;;;;;;;;;;;;23.27;60.46;99310.25;4442805;32;19992;-82
2022/06/30 03:25:00;;;;;;;;;;;;;;;23.36;60.46;99318.34;4470258;32;20016;-83
2022/06/30 03:27:26;;;;;;;;;;;;;;;23.41;60.45;99318.75;4469440;32;24058;-83
2022/06/30 03:29:51;;;;;;;;;;;;;;;23.38;60.46;99314.56;4469472;32;23952;-83
2022/06/30 03:32:16;;;;;;;;;;;;;;;23.48;60.46;99320.72;4442577;32;20053;-83
2022/06/30 03:34:41;;;;;;;;;;;;;;;23.44;60.46;99327.31;4455847;32;19987;-83
2022/06/30 03:37:07;;;;;;;;;;;;;;;23.48;60.46;99331.34;4470066;32;20026;-83
2022/06/30 03:39:32;;;;;;;;;;;;;;;23.56;60.46;99328.84;4471200;32;19977;-83
2022/06/30 03:41:57;;;;;;;;;;;;;;;23.76;60.48;99329.66;4457474;32;19999;-83
2022/06/30 03:44:22;;;;;;;;;;;;;;;23.70;60.47;99324.09;4444278;32;21746;-83
2022/06/30 03:46:47;;;;;;;;;;;;;;;23.80;60.47;99324.91;4443827;32;22239;-84
2022/06/30 03:49:13;;;;;;;;;;;;;;;23.70;60.48;99332.06;4457074;32;20042;-83
2022/06/30 03:51:38;;;;;;;;;;;;;;;23.81;60.49;99331.88;4471566;32;19976;-84
2022/06/30 03:54:03;;;;;;;;;;;;;;;23.87;60.48;99337.47;4471617;32;19956;-84
2022/06/30 03:56:28;;;;;;;;;;;;;;;24.16;60.49;99329.41;4444453;32;19992;-84
2022/06/30 03:58:54;;;;;;;;;;;;;;;24.10;60.49;99340.63;4456892;32;21929;-84
2022/06/30 04:01:19;;;;;;;;;;;;;;;24.33;60.51;99333.13;4471138;32;23771;-84
2022/06/30 04:03:44;;;;;;;;;;;;;;;24.34;60.51;99333.97;4471628;32;19973;-83
2022/06/30 04:06:09;;;;;;;;;;;;;;;24.43;60.50;99336.63;4457339;32;20287;-83
2022/06/30 04:08:34;;;;;;;;;;;;;;;24.32;60.51;99335.94;4443926;32;22664;-83
2022/06/30 04:11:00;;;;;;;;;;;;;;;24.46;60.52;99335.47;4444216;32;20029;-83
2022/06/30 04:13:25;;;;;;;;;;;;;;;24.51;60.51;99340.34;4471470;32;19975;-83
2022/06/30 04:15:50;;;;;;;;;;;;;;;24.65;60.52;99337.22;4471270;32;20030;-83
2022/06/30 04:18:15;;;;;;;;;;;;;;;24.77;60.54;99342.16;4456585;32;29983;-83
2022/06/30 04:20:41;;;;;;;;;;;;;;;24.82;60.53;99340.88;4471123;32;19985;-83
2022/06/30 04:23:06;;;;;;;;;;;;;;;24.93;60.54;99330.84;4457171;32;20311;-83
2022/06/30 04:25:31;;;;;;;;;;;;;;;25.20;60.55;99327.31;4457010;32;20293;-83
2022/06/30 04:27:58;;;;;;;;;;;;;;;25.37;60.55;99325.66;4470210;32;24534;-83
2022/06/30 04:33:07;;;;;;;;;;;;;;;25.57;60.57;99327.16;4456942;32;20032;-83
2022/06/30 04:35:33;;;;;;;;;;;;;;;25.73;60.58;99331.78;4441276;32;19996;-83
2022/06/30 04:37:58;;;;;;;;;;;;;;;25.84;60.58;99336.88;4454504;32;20349;-82
2022/06/30 04:43:07;;;;;;;;;;;;;;;26.17;60.61;99334.38;4471594;32;19991;-83
2022/06/30 04:45:32;;;;;;;;;;;;;;;26.05;60.59;99335.66;4456531;32;31136;-83
2022/06/30 04:47:58;;;;;;;;;;;;;;;26.37;60.61;99325.19;4456915;32;20000;-83
2022/06/30 04:50:23;;;;;;;;;;;;;;;26.50;60.62;99327.38;4470720;32;26071;-84
2022/06/30 04:52:48;;;;;;;;;;;;;;;26.40;60.62;99332.03;4471364;32;19987;-83
2022/06/30 04:55:13;;;;;;;;;;;;;;;26.50;60.62;99335.41;4456302;32;26620;-83
2022/06/30 04:57:38;;;;;;;;;;;;;;;26.69;60.63;99323.63;4456296;32;23639;-84
2022/06/30 05:00:05;;;;;;;;;;;;;;;26.69;60.62;99319.12;4470338;32;29624;-84
2022/06/30 05:02:30;;;;;;;;;;;;;;;26.84;60.63;99325.50;4471036;32;19960;-83
2022/06/30 05:04:55;;;;;;;;;;;;;;;26.92;60.64;99324.69;4472911;32;23111;-84
2022/06/30 05:07:21;;;;;;;;;;;;;;;26.97;60.64;99319.69;4450657;32;19985;-84
2022/06/30 05:09:46;;;;;;;;;;;;;;;27.09;60.65;99321.09;4464175;32;20046;-84
2022/06/30 05:12:11;;;;;;;;;;;;;;;27.37;60.66;99316.25;4473349;32;20233;-83
2022/06/30 05:14:37;;;;;;;;;;;;;;;27.45;60.66;99320.78;4456653;32;20024;-84
2022/06/30 05:17:02;;;;;;;;;;;;;;;27.58;60.66;99317.59;4456806;32;20007;-84
2022/06/30 05:19:27;;;;;;;;;;;;;;;27.62;60.67;99314.44;4470767;32;19973;-84
2022/06/30 05:21:53;;;;;;;;;;;;;;;27.75;60.68;99321.97;4470321;32;22938;-84
2022/06/30 05:27:02;;;;;;;;;;;;;;;28.09;60.70;99322.53;4458403;32;20025;-83
2022/06/30 05:29:27;;;;;;;;;;;;;;;28.32;60.71;99321.84;4456358;32;20333;-83
2022/06/30 05:31:52;;;;;;;;;;;;;;;28.43;60.71;99324.16;4456334;32;19989;-83
2022/06/30 05:34:17;;;;;;;;;;;;;;;28.63;60.73;99321.88;4455589;32;34357;-83
2022/06/30 05:36:43;;;;;;;;;;;;;;;28.70;60.73;99318.31;4455682;32;26533;-83
2022/06/30 05:39:08;;;;;;;;;;;;;;;28.73;60.73;99319.81;4455864;32;24547;-83
2022/06/30 05:41:33;;;;;;;;;;;;;;;29.03;60.75;99313.63;4469905;32;27564;-84
2022/06/30 05:43:58;;;;;;;;;;;;;;;29.17;60.74;99317.38;4455542;32;34191;-83
2022/06/30 05:46:23;;;;;;;;;;;;;;;29.27;60.76;99317.97;4469976;32;28401;-83
2022/06/30 05:48:49;;;;;;;;;;;;;;;29.38;60.76;99323.94;4456172;32;20019;-83
2022/06/30 05:51:14;;;;;;;;;;;;;;;29.45;60.76;99324.91;4455970;32;20370;-83
2022/06/30 05:53:39;;;;;;;;;;;;;;;29.60;60.77;99313.22;4456281;32;20231;-82
2022/06/30 05:56:04;;;;;;;;;;;;;;;29.66;60.78;99316.19;4455882;32;25784;-83
2022/06/30 05:58:30;;;;;;;;;;;;;;;29.73;60.78;99304.53;4442715;32;28971;-83
2022/06/30 06:00:55;;;;;;;;;;;;;;;29.90;60.79;99319.47;4455837;32;19980;-86
2022/06/30 06:03:20;;;;;;;;;;;;;;;30.04;60.79;99315.13;4456488;32;20030;-86
2022/06/30 06:05:45;;;;;;;;;;;;;;;30.25;60.80;99314.41;4456085;32;20318;-85
2022/06/30 06:08:11;;;;;;;;;;;;;;;30.25;60.80;99306.34;4455779;32;24012;-85
2022/06/30 06:10:36;;;;;;;;;;;;;;;30.47;60.82;99320.69;4456454;32;20253;-86
2022/06/30 06:13:02;;;;;;;;;;;;;;;30.64;60.82;99313.28;4456298;32;20009;-85
2022/06/30 06:15:27;;;;;;;;;;;;;;;30.68;60.83;99317.25;4456580;32;20329;-86
2022/06/30 06:17:53;;;;;;;;;;;;;;;30.69;60.83;99302.78;4456327;32;20055;-86
2022/06/30 06:20:18;;;;;;;;;;;;;;;30.89;60.84;99308.41;4456348;32;20069;-86
2022/06/30 06:22:44;;;;;;;;;;;;;;;30.99;60.84;99308.91;4456070;32;20016;-87
2022/06/30 06:25:09;;;;;;;;;;;;;;;31.09;60.85;99310.25;4443359;32;19999;-85
2022/06/30 06:27:35;;;;;;;;;;;;;;;31.28;60.86;99316.06;4454962;32;23447;-87
2022/06/30 06:30:03;;;;;;;;;;;;;;;31.46;60.88;99309.19;4456061;32;19990;-86
2022/06/30 06:32:29;;;;;;;;;;;;;;;31.48;60.87;99313.56;4443233;32;19973;-87
2022/06/30 06:34:54;;;;;;;;;;;;;;;31.69;60.88;99308.13;4443288;32;19993;-87
2022/06/30 06:37:19;;;;;;;;;;;;;;;31.84;60.88;99302.69;4443364;32;20302;-88
2022/06/30 06:39:44;;;;;;;;;;;;;;;32.01;60.90;99307.56;4443723;32;19980;-88
2022/06/30 06:42:10;;;;;;;;;;;;;;;32.19;60.90;99307.06;4456393;32;20033;-88
2022/06/30 06:44:35;;;;;;;;;;;;;;;32.35;60.92;99300.50;4443314;32;19989;-88
2022/06/30 06:47:00;;;;;;;;;;;;;;;32.63;60.93;99305.81;4443560;32;20044;-88
2022/06/30 06:49:27;;;;;;;;;;;;;;;32.84;60.94;99299.47;4444355;32;19991;-89
2022/06/30 06:51:52;;;;;;;;;;;;;;;33.13;60.95;99291.06;4448431;32;19985;-89
2022/06/30 06:54:17;;;;;;;;;;;;;;;33.33;60.97;99292.94;4444267;32;19995;-92
2022/06/30 06:56:43;;;;;;;;;;;;;;;33.61;60.97;99290.88;4444216;32;20024;-89
2022/06/30 06:59:08;;;;;;;;;;;;;;;33.60;60.98;99291.06;4456104;32;20279;-88
2022/06/30 07:01:33;;;;;;;;;;;;;;;33.71;60.97;99285.88;4443178;32;20023;-88
2022/06/30 07:03:58;;;;;;;;;;;;;;;33.79;60.99;99296.44;4443119;32;19985;-88
2022/06/30 07:06:24;;;;;;;;;;;;;;;33.96;61.00;99299.56;4455340;32;25935;-88
2022/06/30 07:08:49;;;;;;;;;;;;;;;33.88;60.99;99286.31;4455721;32;19987;-88
2022/06/30 07:11:14;;;;;;;;;;;;;;;33.95;61.00;99289.81;4456024;32;20016;-88
2022/06/30 07:13:39;;;;;;;;;;;;;;;34.17;61.00;99291.22;4441485;32;20026;-88
2022/06/30 07:16:05;;;;;;;;;;;;;;;34.28;61.02;99288.88;4442440;32;23339;-87
2022/06/30 07:18:30;;;;;;;;;;;;;;;34.13;61.01;99286.44;4455815;32;20276;-87
2022/06/30 07:20:55;;;;;;;;;;;;;;;34.16;61.01;99291.44;4469542;32;23892;-88
2022/06/30 07:23:20;;;;;;;;;;;;;;;34.31;61.02;99285.75;4455556;32;21187;-88
2022/06/30 07:25:46;;;;;;;;;;;;;;;34.36;61.02;99288.69;4455856;32;20293;-87
2022/06/30 07:28:11;;;;;;;;;;;;;;;34.43;61.03;99284.91;4455352;32;19983;-87
2022/06/30 07:30:36;;;;;;;;;;;;;;;34.36;61.02;99284.13;4442470;32;19993;-86
2022/06/30 07:33:01;;;;;;;;;;;;;;;34.55;61.03;99276.16;4455436;32;19993;-88
2022/06/30 07:35:27;;;;;;;;;;;;;;;34.65;61.03;99279.19;4469584;32;20008;-87
2022/06/30 07:37:52;;;;;;;;;;;;;;;34.63;61.03;99282.13;4455724;32;20391;-87
2022/06/30 07:40:17;;;;;;;;;;;;;;;34.76;61.03;99273.09;4455374;32;19985;-87
2022/06/30 07:42:42;;;;;;;;;;;;;;;34.83;61.04;99270.37;4455671;32;20015;-87
2022/06/30 07:45:08;;;;;;;;;;;;;;;34.83;61.04;99273.06;4455893;32;19976;-87
2022/06/30 07:47:33;;;;;;;;;;;;;;;35.00;61.05;99258.00;4455628;32;19965;-87
2022/06/30 07:49:58;;;;;;;;;;;;;;;35.19;61.06;99269.72;4455348;32;20348;-87
2022/06/30 07:52:24;;;;;;;;;;;;;;;35.18;61.06;99266.19;4455227;32;22873;-86
2022/06/30 07:54:50;;;;;;;;;;;;;;;34.98;61.04;99258.22;4455480;32;19977;-87
2022/06/30 07:57:16;;;;;;;;;;;;;;;35.06;61.05;99266.09;4442799;32;19964;-88
2022/06/30 07:59:41;;;;;;;;;;;;;;;35.11;61.05;99262.72;4442611;32;20003;-88
2022/06/30 08:02:06;;;;;;;;;;;;;;;35.25;61.06;99255.31;4441800;32;26257;-87
2022/06/30 08:04:33;;;;;;;;;;;;;;;35.35;61.07;99263.81;4442273;32;19972;-88
2022/06/30 08:07:01;;;;;;;;;;;;;;;35.57;61.08;99259.66;4442466;32;19984;-88
2022/06/30 08:09:26;;;;;;;;;;;;;;;35.74;61.09;99264.50;4455045;32;20348;-88
2022/06/30 08:11:53;;;;;;;;;;;;;;;35.64;61.07;99257.69;4442691;32;19985;-88
2022/06/30 08:14:18;;;;;;;;;;;;;;;35.55;61.07;99259.03;4458594;32;19992;-88
2022/06/30 08:16:44;;;;;;;;;;;;;;;35.56;61.07;99263.41;4455322;32;20305;-88
2022/06/30 08:19:09;;;;;;;;;;;;;;;35.83;61.09;99264.00;4442021;32;20063;-88
2022/06/30 08:21:34;;;;;;;;;;;;;;;36.11;61.11;99258.06;4455045;32;20049;-88
2022/06/30 08:23:59;;;;;;;;;;;;;;;36.19;61.10;99254.22;4455457;32;20024;-88
2022/06/30 08:26:25;;;;;;;;;;;;;;;36.42;61.12;99246.22;4444166;32;19980;-88
2022/06/30 08:28:50;;;;;;;;;;;;;;;36.54;61.13;99249.00;4456915;32;19996;-88
2022/06/30 08:31:16;;;;;;;;;;;;;;;36.75;61.13;99250.38;4444388;32;20321;-88
2022/06/30 08:33:41;;;;;;;;;;;;;;;36.93;61.14;99236.78;4457224;32;19977;-88
2022/06/30 08:36:08;;;;;;;;;;;;;;;37.21;61.15;99238.84;4444186;32;20006;-87
2022/06/30 08:38:33;;;;;;;;;;;;;;;37.22;61.15;99236.97;4457456;32;19993;-88
2022/06/30 08:43:45;;;;;;;;;;;;;;;37.18;61.16;99232.00;4459281;32;20539;-88
2022/06/30 08:46:12;;;;;;;;;;;;;;;37.15;61.15;99232.47;4444590;32;19984;-88
2022/06/30 08:48:37;;;;;;;;;;;;;;;37.29;61.16;99237.69;4463978;32;19961;-87
2022/06/30 08:51:06;;;;;;;;;;;;;;;37.50;61.16;99234.41;4451782;32;19993;-88
2022/06/30 08:53:36;;;;;;;;;;;;;;;37.54;61.17;99229.31;4462597;32;19992;-87
2022/06/30 08:56:01;;;;;;;;;;;;;;;37.58;61.17;99228.59;4457749;32;19977;-88
2022/06/30 08:58:26;;;;;;;;;;;;;;;37.66;61.17;99230.97;4457134;32;19985;-87
2022/06/30 09:00:52;;;;;;;;;;;;;;;37.87;61.19;99232.28;4456132;32;30186;-88
2022/06/30 09:03:17;;;;;;;;;;;;;;;37.55;61.17;99239.13;4443929;32;19977;-88
2022/06/30 09:05:48;;;;;;;;;;;;;;;37.62;61.17;99228.94;4443818;32;19980;-88
2022/06/30 09:08:14;;;;;;;;;;;;;;;37.74;61.18;99236.06;4444092;32;19993;-88
2022/06/30 09:10:46;;;;;;;;;;;;;;;37.93;61.19;99239.47;4443927;32;20011;-88
2022/06/30 09:13:11;;;;;;;;;;;;;;;37.78;61.19;99233.69;4444047;32;19980;-88
2022/06/30 09:15:39;;;;;;;;;;;;;;;37.76;61.19;99225.78;4456966;32;20042;-87
2022/06/30 09:18:06;;;;;;;;;;;;;;;37.74;61.18;99232.53;4456854;32;20393;-88
2022/06/30 09:20:32;;;;;;;;;;;;;;;37.87;61.19;99236.91;4456783;32;20011;-87
2022/06/30 09:22:57;;;;;;;;;;;;;;;38.05;61.19;99232.09;4456997;32;20152;-88
2022/06/30 09:25:24;;;;;;;;;;;;;;;38.30;61.20;99231.00;4456862;32;20253;-88
2022/06/30 09:27:49;;;;;;;;;;;;;;;38.52;61.22;99233.88;4443661;32;19996;-88
2022/06/30 09:30:19;;;;;;;;;;;;;;;38.75;61.23;99222.91;4443802;32;20007;-88
2022/06/30 09:32:52;;;;;;;;;;;;;;;38.80;61.23;99225.72;4444087;32;20001;-88
2022/06/30 09:35:18;;;;;;;;;;;;;;;39.00;61.24;99217.09;4445210;32;20455;-88
2022/06/30 09:37:44;;;;;;;;;;;;;;;39.13;61.25;99221.41;4457795;32;20047;-88
2022/06/30 09:40:09;;;;;;;;;;;;;;;39.09;61.24;99215.66;4443948;32;19992;-87
2022/06/30 09:42:44;;;;;;;;;;;;;;;38.93;61.24;99210.97;4456577;32;20262;-86
2022/06/30 09:45:11;;;;;;;;;;;;;;;38.83;61.23;99208.09;4443623;32;19991;-85
2022/06/30 09:47:36;;;;;;;;;;;;;;;38.72;61.23;99206.25;4443546;32;20366;-86
2022/06/30 09:50:05;;;;;;;;;;;;;;;38.63;61.22;99203.13;4456643;32;19981;-86
2022/06/30 09:52:31;;;;;;;;;;;;;;;38.81;61.23;99194.75;4443761;32;20016;-86
2022/06/30 09:55:00;;;;;;;;;;;;;;;38.87;61.23;99196.47;4443578;32;19981;-86
2022/06/30 09:57:27;;;;;;;;;;;;;;;39.08;61.25;99194.94;4443576;32;20011;-87
2022/06/30 09:59:59;;;;;;;;;;;;;;;39.10;61.25;99198.25;4443912;32;19988;-85
2022/06/30 10:02:46;;;;;;;;;;;;;;;39.05;61.25;99200.03;4456317;32;20335;-88
2022/06/30 10:05:11;;;;;;;;;;;;;;;38.82;61.24;99188.22;4456561;32;19995;-87
2022/06/30 10:07:37;;;;;;;;;;;;;;;38.65;61.22;99198.25;4456469;32;20016;-88
2022/06/30 10:10:10;;;;;;;;;;;;;;;38.77;61.23;99193.56;4456469;32;19985;-87
2022/06/30 10:12:35;;;;;;;;;;;;;;;38.66;61.23;99180.88;4443538;32;19977;-88
2022/06/30 10:15:00;;;;;;;;;;;;;;;38.73;61.24;99178.81;4443749;32;19984;-87
2022/06/30 10:17:26;;;;;;;;;;;;;;;38.97;61.25;99183.03;4456691;32;20252;-87
2022/06/30 10:19:52;;;;;;;;;;;;;;;38.81;61.25;99180.31;4456491;32;20407;-87
2022/06/30 10:22:17;;;;;;;;;;;;;;;38.73;61.23;99178.00;4443381;32;19993;-88
2022/06/30 10:24:45;;;;;;;;;;;;;;;38.86;61.24;99174.97;4456589;32;19999;-87
2022/06/30 10:27:13;;;;;;;;;;;;;;;38.96;61.24;99180.56;4443510;32;20446;-87
2022/06/30 10:29:40;;;;;;;;;;;;;;;39.00;61.24;99182.53;4456755;32;20011;-87
2022/06/30 10:32:08;;;;;;;;;;;;;;;39.06;61.25;99180.72;4443783;32;20032;-88
2022/06/30 10:34:35;;;;;;;;;;;;;;;39.19;61.25;99185.03;4443374;32;20081;-87
2022/06/30 10:37:19;;;;;;;;;;;;;;;39.28;61.25;99173.50;4456574;32;19993;-87
2022/06/30 10:39:58;;;;;;;;;;;;;;;39.50;61.27;99169.94;4470682;32;20003;-87
2022/06/30 10:42:42;;;;;;;;;;;;;;;39.65;61.27;99167.47;4443371;32;19999;-89
2022/06/30 10:45:25;;;;;;;;;;;;;;;39.71;61.28;99161.00;4456272;32;19985;-87
2022/06/30 10:47:54;;;;;;;;;;;;;;;39.80;61.29;99162.22;4456159;32;20039;-88
2022/06/30 10:50:33;;;;;;;;;;;;;;;40.06;61.30;99163.37;4456544;32;20732;-88
2022/06/30 10:52:58;;;;;;;;;;;;;;;40.03;61.29;99160.34;4443573;32;19981;-88
2022/06/30 10:55:23;;;;;;;;;;;;;;;40.14;61.30;99162.09;4442993;32;19999;-88
2022/06/30 10:57:58;;;;;;;;;;;;;;;40.23;61.30;99151.59;4443691;32;19980;-88
2022/06/30 11:00:42;;;;;;;;;;;;;;;40.39;61.31;99143.31;4445743;32;20052;-88
2022/06/30 11:03:07;;;;;;;;;;;;;;;40.35;61.30;99154.97;4456138;32;19977;-88
2022/06/30 11:05:32;;;;;;;;;;;;;;;40.37;61.30;99158.25;4456042;32;19991;-87
2022/06/30 11:08:18;;;;;;;;;;;;;;;40.30;61.31;99155.75;4442920;32;20348;-87
2022/06/30 11:10:43;;;;;;;;;;;;;;;40.06;61.30;99147.03;4470368;32;19984;-88
2022/06/30 11:13:08;;;;;;;;;;;;;;;39.79;61.29;99146.97;4455381;32;31436;-87
2022/06/30 11:15:50;;;;;;;;;;;;;;;39.55;61.28;99153.72;4456150;32;20272;-88
2022/06/30 11:18:15;;;;;;;;;;;;;;;39.54;61.26;99142.00;4456247;32;20007;-88
2022/06/30 11:20:44;;;;;;;;;;;;;;;39.80;61.29;99143.16;4442493;32;21516;-87
2022/06/30 11:23:09;;;;;;;;;;;;;;;40.07;61.30;99136.94;4455700;32;20352;-87
2022/06/30 11:28:19;;;;;;;;;;;;;;;40.13;61.30;99136.75;4457841;32;20403;-85
2022/06/30 11:30:44;;;;;;;;;;;;;;;40.00;61.29;99142.59;4442055;32;31102;-85
2022/06/30 11:33:09;;;;;;;;;;;;;;;40.12;61.29;99131.53;4442641;32;19976;-86
2022/06/30 11:35:34;;;;;;;;;;;;;;;40.28;61.30;99125.19;4455062;32;27891;-89
2022/06/30 11:38:00;;;;;;;;;;;;;;;40.50;61.31;99122.41;4442230;32;20325;-88
2022/06/30 11:40:25;;;;;;;;;;;;;;;40.44;61.31;99117.97;4442551;32;20250;-88
2022/06/30 11:42:53;;;;;;;;;;;;;;;40.49;61.31;99118.88;4455349;32;20019;-87
2022/06/30 11:45:19;;;;;;;;;;;;;;;40.24;61.30;99115.88;4455620;32;20003;-87
2022/06/30 11:47:50;;;;;;;;;;;;;;;40.37;61.30;99107.25;4455366;32;19993;-87
2022/06/30 11:50:18;;;;;;;;;;;;;;;40.52;61.31;99112.06;4455540;32;19993;-87
2022/06/30 11:52:43;;;;;;;;;;;;;;;40.20;61.29;99109.25;4455258;32;19995;-86
2022/06/30 11:55:17;;;;;;;;;;;;;;;39.96;61.30;99116.09;4455261;32;19992;-87
2022/06/30 11:57:43;;;;;;;;;;;;;;;39.83;61.29;99114.56;4443155;32;20325;-87
2022/06/30 12:00:12;;;;;;;;;;;;;;;39.73;61.28;99104.34;4443667;32;20029;-88
2022/06/30 12:02:38;;;;;;;;;;;;;;;39.78;61.28;99106.34;4457323;32;20802;-88
2022/06/30 12:05:04;;;;;;;;;;;;;;;39.94;61.29;99120.94;4457224;32;20065;-88
2022/06/30 12:07:30;;;;;;;;;;;;;;;40.09;61.29;99094.72;4457134;32;19981;-88
2022/06/30 12:09:55;;;;;;;;;;;;;;;40.19;61.30;99099.44;4444445;32;19999;-88
2022/06/30 12:12:26;;;;;;;;;;;;;;;40.16;61.30;99099.97;4444290;32;19993;-87
2022/06/30 12:15:02;;;;;;;;;;;;;;;40.46;61.32;99100.28;4444994;32;20032;-88
2022/06/30 12:17:33;;;;;;;;;;;;;;;40.66;61.32;99105.06;4444393;32;20000;-88
2022/06/30 12:19:59;;;;;;;;;;;;;;;40.85;61.33;99110.16;4457464;32;20422;-87
2022/06/30 12:22:24;;;;;;;;;;;;;;;40.93;61.33;99096.84;4459202;32;20409;-88
2022/06/30 12:24:51;;;;;;;;;;;;;;;40.95;61.34;99094.69;4457882;32;20073;-86
2022/06/30 12:27:26;;;;;;;;;;;;;;;40.90;61.33;99086.44;4444537;32;20377;-88
2022/06/30 12:30:01;;;;;;;;;;;;;;;40.63;61.32;99091.12;4471546;32;19977;-88
2022/06/30 12:32:27;;;;;;;;;;;;;;;40.90;61.33;99081.00;4457816;32;19991;-89
2022/06/30 12:34:53;;;;;;;;;;;;;;;41.06;61.34;99090.94;4444617;32;19977;-88
2022/06/30 12:37:24;;;;;;;;;;;;;;;41.07;61.34;99089.03;4445796;32;20010;-88
2022/06/30 12:39:50;;;;;;;;;;;;;;;41.10;61.35;99083.84;4450764;32;20060;-88
2022/06/30 12:42:15;;;;;;;;;;;;;;;41.10;61.35;99078.37;4478085;32;19991;-88
2022/06/30 12:44:40;;;;;;;;;;;;;;;40.91;61.34;99082.62;4476689;32;25132;-88
2022/06/30 12:47:09;;;;;;;;;;;;;;;40.90;61.34;99078.25;4457903;32;19999;-88
2022/06/30 12:49:34;;;;;;;;;;;;;;;40.70;61.33;99084.41;4444253;32;19988;-88
2022/06/30 12:52:00;;;;;;;;;;;;;;;40.67;61.32;99084.88;4444071;32;19992;-87
2022/06/30 12:54:25;;;;;;;;;;;;;;;40.85;61.33;99078.22;4444090;32;20010;-88
2022/06/30 12:56:51;;;;;;;;;;;;;;;41.04;61.35;99079.44;4444085;32;20015;-87
2022/06/30 12:59:20;;;;;;;;;;;;;;;41.05;61.34;99075.62;4456469;32;22989;-88
2022/06/30 13:01:46;;;;;;;;;;;;;;;41.03;61.35;99069.63;4444230;32;19996;-87